sensor_id;sensor_type;location;lat;lon;timestamp;temperature;humidity
21149;DHT22;10732;51.472;6.466;2024-03-23T00:52:58;6.50;99.90
21149;DHT22;10732;51.472;6.466;2024-03-23T00:55:23;6.50;99.90
21149;DHT22;10732;51.472;6.466;2024-03-23T00:57:49;6.50;99.90
21149;DHT22;10732;51.472;6.466;2024-03-23T01:00:15;6.50;99.90
21149;DHT22;10732;51.472;6.466;2024-03-23T01:02:41;6.60;99.90
21149;DHT22;10732;51.472;6.466;2024-03-23T01:05:06;6.50;99.90
21149;DHT22;10732;51.472;6.466;2024-03-23T01:07:32;6.50;99.90
21149;DHT22;10732;51.472;6.466;2024-03-23T01:09:58;6.50;99.90
21149;DHT22;10732;51.472;6.466;2024-03-23T01:12:23;6.50;99.90
21149;DHT22;10732;51.472;6.466;2024-03-23T01:14:49;6.40;99.90
21149;DHT22;10732;51.472;6.466;2024-03-23T01:17:14;6.40;99.90
21149;DHT22;10732;51.472;6.466;2024-03-23T01:19:40;6.40;99.90
21149;DHT22;10732;51.472;6.466;2024-03-23T01:22:07;6.50;99.90
21149;DHT22;10732;51.472;6.466;2024-03-23T01:24:32;6.60;99.90
21149;DHT22;10732;51.472;6.466;2024-03-23T01:26:58;6.30;99.90
21149;DHT22;10732;51.472;6.466;2024-03-23T01:29:24;6.20;99.90
21149;DHT22;10732;51.472;6.466;2024-03-23T01:31:49;6.20;99.90
21149;DHT22;10732;51.472;6.466;2024-03-23T01:34:15;6.20;99.90
21149;DHT22;10732;51.472;6.466;2024-03-23T01:36:40;6.20;99.90
21149;DHT22;10732;51.472;6.466;2024-03-23T01:39:06;6.20;99.90
21149;DHT22;10732;51.472;6.466;2024-03-23T01:41:35;6.20;99.90
21149;DHT22;10732;51.472;6.466;2024-03-23T01:44:05;6.10;99.90
21149;DHT22;10732;51.472;6.466;2024-03-23T01:46:31;6.20;99.90
21149;DHT22;10732;51.472;6.466;2024-03-23T01:48:57;6.30;99.90
21149;DHT22;10732;51.472;6.466;2024-03-23T01:51:23;6.30;99.90
21149;DHT22;10732;51.472;6.466;2024-03-23T01:53:49;6.40;99.90
21149;DHT22;10732;51.472;6.466;2024-03-23T01:56:15;6.40;99.90
21149;DHT22;10732;51.472;6.466;2024-03-23T01:58:41;6.30;99.90
21149;DHT22;10732;51.472;6.466;2024-03-23T02:01:06;6.30;99.90
21149;DHT22;10732;51.472;6.466;2024-03-23T02:03:32;6.30;99.90
21149;DHT22;10732;51.472;6.466;2024-03-23T02:05:57;6.30;99.90
21149;DHT22;10732;51.472;6.466;2024-03-23T02:08:24;6.30;99.90
21149;DHT22;10732;51.472;6.466;2024-03-23T02:10:50;6.30;99.90
21149;DHT22;10732;51.472;6.466;2024-03-23T02:13:17;6.30;99.90
21149;DHT22;10732;51.472;6.466;2024-03-23T02:15:43;6.40;99.90
21149;DHT22;10732;51.472;6.466;2024-03-23T02:18:10;6.40;99.90
21149;DHT22;10732;51.472;6.466;2024-03-23T02:20:36;6.40;99.90
21149;DHT22;10732;51.472;6.466;2024-03-23T02:23:03;6.40;99.90
21149;DHT22;10732;51.472;6.466;2024-03-23T02:25:28;6.40;99.90
21149;DHT22;10732;51.472;6.466;2024-03-23T02:27:54;6.40;99.90
21149;DHT22;10732;51.472;6.466;2024-03-23T02:30:20;6.40;99.90
21149;DHT22;10732;51.472;6.466;2024-03-23T02:32:46;6.30;99.90
21149;DHT22;10732;51.472;6.466;2024-03-23T02:35:12;6.30;99.90
21149;DHT22;10732;51.472;6.466;2024-03-23T02:37:37;6.30;99.90
21149;DHT22;10732;51.472;6.466;2024-03-23T02:40:03;6.30;99.90
21149;DHT22;10732;51.472;6.466;2024-03-23T02:42:29;6.30;99.90
21149;DHT22;10732;51.472;6.466;2024-03-23T02:44:55;6.30;99.90
21149;DHT22;10732;51.472;6.466;2024-03-23T02:47:20;6.30;99.90
21149;DHT22;10732;51.472;6.466;2024-03-23T02:49:46;6.30;99.90
21149;DHT22;10732;51.472;6.466;2024-03-23T02:52:11;6.20;99.90
21149;DHT22;10732;51.472;6.466;2024-03-23T02:54:37;6.20;99.90
21149;DHT22;10732;51.472;6.466;2024-03-23T02:57:02;6.20;99.90
21149;DHT22;10732;51.472;6.466;2024-03-23T02:59:28;6.20;99.90
21149;DHT22;10732;51.472;6.466;2024-03-23T03:01:54;6.20;99.90
21149;DHT22;10732;51.472;6.466;2024-03-23T03:04:19;6.20;99.90
21149;DHT22;10732;51.472;6.466;2024-03-23T03:06:47;6.20;99.90
21149;DHT22;10732;51.472;6.466;2024-03-23T03:09:12;6.20;99.90
21149;DHT22;10732;51.472;6.466;2024-03-23T03:11:38;6.20;99.90
21149;DHT22;10732;51.472;6.466;2024-03-23T03:14:04;6.20;99.90
21149;DHT22;10732;51.472;6.466;2024-03-23T03:16:29;6.10;99.90
21149;DHT22;10732;51.472;6.466;2024-03-23T03:18:55;6.10;99.90
21149;DHT22;10732;51.472;6.466;2024-03-23T03:21:21;6.10;99.90
21149;DHT22;10732;51.472;6.466;2024-03-23T03:23:47;6.20;99.90
21149;DHT22;10732;51.472;6.466;2024-03-23T03:26:16;6.20;99.90
21149;DHT22;10732;51.472;6.466;2024-03-23T03:28:42;6.20;99.90
21149;DHT22;10732;51.472;6.466;2024-03-23T03:31:08;6.20;99.90
21149;DHT22;10732;51.472;6.466;2024-03-23T03:33:34;6.20;99.90
21149;DHT22;10732;51.472;6.466;2024-03-23T03:35:59;6.20;99.90
21149;DHT22;10732;51.472;6.466;2024-03-23T03:38:25;6.20;99.90
21149;DHT22;10732;51.472;6.466;2024-03-23T03:40:50;6.20;99.90
21149;DHT22;10732;51.472;6.466;2024-03-23T03:43:18;6.20;99.90
21149;DHT22;10732;51.472;6.466;2024-03-23T03:45:51;6.20;99.90
21149;DHT22;10732;51.472;6.466;2024-03-23T03:48:17;6.20;99.90
21149;DHT22;10732;51.472;6.466;2024-03-23T03:50:43;6.20;99.90
21149;DHT22;10732;51.472;6.466;2024-03-23T03:53:08;6.20;99.90
21149;DHT22;10732;51.472;6.466;2024-03-23T03:55:34;6.10;99.90
21149;DHT22;10732;51.472;6.466;2024-03-23T03:58:00;6.20;99.90
21149;DHT22;10732;51.472;6.466;2024-03-23T04:00:25;6.10;99.90
21149;DHT22;10732;51.472;6.466;2024-03-23T04:02:51;6.20;99.90
21149;DHT22;10732;51.472;6.466;2024-03-23T04:05:16;6.20;99.90
21149;DHT22;10732;51.472;6.466;2024-03-23T04:07:42;6.20;99.90
21149;DHT22;10732;51.472;6.466;2024-03-23T04:10:08;6.20;99.90
21149;DHT22;10732;51.472;6.466;2024-03-23T04:12:34;6.10;99.90
21149;DHT22;10732;51.472;6.466;2024-03-23T04:15:00;6.10;99.90
21149;DHT22;10732;51.472;6.466;2024-03-23T04:17:26;6.10;99.90
21149;DHT22;10732;51.472;6.466;2024-03-23T04:19:57;6.10;99.90
21149;DHT22;10732;51.472;6.466;2024-03-23T04:22:23;6.10;99.90
21149;DHT22;10732;51.472;6.466;2024-03-23T04:24:50;6.10;99.90
21149;DHT22;10732;51.472;6.466;2024-03-23T04:27:15;6.10;99.90
21149;DHT22;10732;51.472;6.466;2024-03-23T04:29:41;6.10;99.90
21149;DHT22;10732;51.472;6.466;2024-03-23T04:32:06;6.10;99.90
21149;DHT22;10732;51.472;6.466;2024-03-23T04:34:32;6.20;99.90
21149;DHT22;10732;51.472;6.466;2024-03-23T04:36:58;6.10;99.90
21149;DHT22;10732;51.472;6.466;2024-03-23T04:39:24;6.10;99.90
21149;DHT22;10732;51.472;6.466;2024-03-23T04:41:49;6.00;99.90
21149;DHT22;10732;51.472;6.466;2024-03-23T04:44:15;6.00;99.90
21149;DHT22;10732;51.472;6.466;2024-03-23T04:46:41;6.00;99.90
21149;DHT22;10732;51.472;6.466;2024-03-23T04:49:06;6.00;99.90
21149;DHT22;10732;51.472;6.466;2024-03-23T04:51:36;6.00;99.90
21149;DHT22;10732;51.472;6.466;2024-03-23T04:54:07;6.00;99.90
21149;DHT22;10732;51.472;6.466;2024-03-23T04:56:32;6.00;99.90
21149;DHT22;10732;51.472;6.466;2024-03-23T04:58:58;6.00;99.90
21149;DHT22;10732;51.472;6.466;2024-03-23T05:01:27;6.00;99.90
21149;DHT22;10732;51.472;6.466;2024-03-23T05:03:53;5.90;99.90
21149;DHT22;10732;51.472;6.466;2024-03-23T05:06:19;5.90;99.90
21149;DHT22;10732;51.472;6.466;2024-03-23T05:08:45;5.90;99.90
21149;DHT22;10732;51.472;6.466;2024-03-23T05:11:11;5.90;99.90
21149;DHT22;10732;51.472;6.466;2024-03-23T05:13:37;5.90;99.90
21149;DHT22;10732;51.472;6.466;2024-03-23T05:16:02;5.90;99.90
21149;DHT22;10732;51.472;6.466;2024-03-23T05:18:29;5.90;99.90
21149;DHT22;10732;51.472;6.466;2024-03-23T05:20:58;5.90;99.90
21149;DHT22;10732;51.472;6.466;2024-03-23T05:23:24;5.90;99.90
21149;DHT22;10732;51.472;6.466;2024-03-23T05:25:50;5.90;99.90
21149;DHT22;10732;51.472;6.466;2024-03-23T05:28:17;5.80;99.90
21149;DHT22;10732;51.472;6.466;2024-03-23T05:30:43;5.80;99.90
21149;DHT22;10732;51.472;6.466;2024-03-23T05:33:09;5.80;99.90
21149;DHT22;10732;51.472;6.466;2024-03-23T05:35:34;5.70;99.90
21149;DHT22;10732;51.472;6.466;2024-03-23T05:38:00;5.60;99.90
21149;DHT22;10732;51.472;6.466;2024-03-23T05:40:26;5.60;99.90
21149;DHT22;10732;51.472;6.466;2024-03-23T05:42:52;5.50;99.90
21149;DHT22;10732;51.472;6.466;2024-03-23T05:45:23;5.40;99.90
21149;DHT22;10732;51.472;6.466;2024-03-23T05:47:49;5.40;99.90
21149;DHT22;10732;51.472;6.466;2024-03-23T05:50:16;5.40;99.90
21149;DHT22;10732;51.472;6.466;2024-03-23T05:52:43;5.30;99.90
21149;DHT22;10732;51.472;6.466;2024-03-23T05:55:09;5.30;99.90
21149;DHT22;10732;51.472;6.466;2024-03-23T05:57:34;5.30;99.90
21149;DHT22;10732;51.472;6.466;2024-03-23T06:00:00;5.30;99.90
21149;DHT22;10732;51.472;6.466;2024-03-23T06:02:25;5.30;99.90
21149;DHT22;10732;51.472;6.466;2024-03-23T06:04:51;5.30;99.90
21149;DHT22;10732;51.472;6.466;2024-03-23T06:07:16;5.30;99.90
21149;DHT22;10732;51.472;6.466;2024-03-23T06:09:42;5.30;99.90
21149;DHT22;10732;51.472;6.466;2024-03-23T06:12:08;5.40;99.90
21149;DHT22;10732;51.472;6.466;2024-03-23T06:14:34;5.50;99.90
21149;DHT22;10732;51.472;6.466;2024-03-23T06:17:00;5.60;99.90
21149;DHT22;10732;51.472;6.466;2024-03-23T06:19:27;5.70;99.90
21149;DHT22;10732;51.472;6.466;2024-03-23T06:21:53;5.80;99.90
21149;DHT22;10732;51.472;6.466;2024-03-23T06:24:21;5.80;99.90
21149;DHT22;10732;51.472;6.466;2024-03-23T06:26:47;5.90;99.90
21149;DHT22;10732;51.472;6.466;2024-03-23T06:29:12;6.00;99.90
21149;DHT22;10732;51.472;6.466;2024-03-23T06:31:38;6.00;99.90
21149;DHT22;10732;51.472;6.466;2024-03-23T06:34:04;6.10;99.90
21149;DHT22;10732;51.472;6.466;2024-03-23T06:36:30;6.10;99.90
21149;DHT22;10732;51.472;6.466;2024-03-23T06:38:56;6.20;99.90
21149;DHT22;10732;51.472;6.466;2024-03-23T06:41:22;6.20;99.90
21149;DHT22;10732;51.472;6.466;2024-03-23T06:43:48;6.20;99.90
21149;DHT22;10732;51.472;6.466;2024-03-23T06:46:14;6.20;99.90
21149;DHT22;10732;51.472;6.466;2024-03-23T06:48:39;6.30;99.90
21149;DHT22;10732;51.472;6.466;2024-03-23T06:51:05;6.40;99.90
21149;DHT22;10732;51.472;6.466;2024-03-23T06:53:32;6.40;99.90
21149;DHT22;10732;51.472;6.466;2024-03-23T06:55:57;6.40;99.90
21149;DHT22;10732;51.472;6.466;2024-03-23T06:58:24;6.50;99.90
21149;DHT22;10732;51.472;6.466;2024-03-23T07:00:50;6.50;99.90
21149;DHT22;10732;51.472;6.466;2024-03-23T07:03:18;6.60;99.90
21149;DHT22;10732;51.472;6.466;2024-03-23T07:05:44;6.70;99.90
21149;DHT22;10732;51.472;6.466;2024-03-23T07:08:11;6.80;99.90
21149;DHT22;10732;51.472;6.466;2024-03-23T07:10:39;6.80;99.90
21149;DHT22;10732;51.472;6.466;2024-03-23T07:13:05;7.00;99.90
21149;DHT22;10732;51.472;6.466;2024-03-23T07:15:32;7.70;99.90
21149;DHT22;10732;51.472;6.466;2024-03-23T07:17:57;9.30;99.90
21149;DHT22;10732;51.472;6.466;2024-03-23T07:20:23;10.00;99.90
21149;DHT22;10732;51.472;6.466;2024-03-23T07:22:48;10.90;99.90
21149;DHT22;10732;51.472;6.466;2024-03-23T07:25:14;10.80;99.90
21149;DHT22;10732;51.472;6.466;2024-03-23T07:27:40;10.60;99.90
21149;DHT22;10732;51.472;6.466;2024-03-23T07:30:06;11.00;99.90
21149;DHT22;10732;51.472;6.466;2024-03-23T07:32:32;11.20;99.90
21149;DHT22;10732;51.472;6.466;2024-03-23T07:34:57;11.70;99.90
21149;DHT22;10732;51.472;6.466;2024-03-23T07:37:23;12.10;99.90
21149;DHT22;10732;51.472;6.466;2024-03-23T07:39:49;12.40;99.90
21149;DHT22;10732;51.472;6.466;2024-03-23T07:42:15;12.10;99.90
21149;DHT22;10732;51.472;6.466;2024-03-23T07:44:40;12.30;99.90
21149;DHT22;10732;51.472;6.466;2024-03-23T07:47:06;12.60;99.90
21149;DHT22;10732;51.472;6.466;2024-03-23T07:49:32;13.20;99.90
21149;DHT22;10732;51.472;6.466;2024-03-23T07:51:58;13.10;99.90
21149;DHT22;10732;51.472;6.466;2024-03-23T07:54:23;13.80;99.90
21149;DHT22;10732;51.472;6.466;2024-03-23T07:56:49;13.50;99.90
21149;DHT22;10732;51.472;6.466;2024-03-23T07:59:14;12.60;99.90
21149;DHT22;10732;51.472;6.466;2024-03-23T08:01:40;12.70;99.90
21149;DHT22;10732;51.472;6.466;2024-03-23T08:04:06;12.40;99.90
21149;DHT22;10732;51.472;6.466;2024-03-23T08:06:31;12.40;99.90
21149;DHT22;10732;51.472;6.466;2024-03-23T08:08:58;11.90;99.90
21149;DHT22;10732;51.472;6.466;2024-03-23T08:11:28;11.90;99.90
21149;DHT22;10732;51.472;6.466;2024-03-23T08:13:54;11.10;99.90
21149;DHT22;10732;51.472;6.466;2024-03-23T08:16:20;11.20;99.90
21149;DHT22;10732;51.472;6.466;2024-03-23T08:18:45;11.90;99.90
21149;DHT22;10732;51.472;6.466;2024-03-23T08:21:11;11.90;99.90
21149;DHT22;10732;51.472;6.466;2024-03-23T08:23:37;11.10;99.90
21149;DHT22;10732;51.472;6.466;2024-03-23T08:26:21;9.80;99.90
21149;DHT22;10732;51.472;6.466;2024-03-23T08:28:47;9.40;99.90
21149;DHT22;10732;51.472;6.466;2024-03-23T08:31:14;10.00;99.90
21149;DHT22;10732;51.472;6.466;2024-03-23T08:33:42;11.10;99.90
21149;DHT22;10732;51.472;6.466;2024-03-23T08:36:10;12.20;99.90
21149;DHT22;10732;51.472;6.466;2024-03-23T08:38:37;13.10;99.90
21149;DHT22;10732;51.472;6.466;2024-03-23T08:41:07;13.80;99.90
21149;DHT22;10732;51.472;6.466;2024-03-23T08:43:36;13.80;99.90
21149;DHT22;10732;51.472;6.466;2024-03-23T08:46:07;14.10;99.90
21149;DHT22;10732;51.472;6.466;2024-03-23T08:48:46;13.90;99.90
21149;DHT22;10732;51.472;6.466;2024-03-23T08:51:15;13.40;99.90
21149;DHT22;10732;51.472;6.466;2024-03-23T08:53:41;13.50;99.90
21149;DHT22;10732;51.472;6.466;2024-03-23T08:56:08;13.60;99.90
21149;DHT22;10732;51.472;6.466;2024-03-23T08:58:34;13.50;99.90
21149;DHT22;10732;51.472;6.466;2024-03-23T09:01:08;13.90;99.90
21149;DHT22;10732;51.472;6.466;2024-03-23T09:03:34;14.70;99.90
21149;DHT22;10732;51.472;6.466;2024-03-23T09:06:01;13.20;99.90
21149;DHT22;10732;51.472;6.466;2024-03-23T09:08:26;13.10;99.90
21149;DHT22;10732;51.472;6.466;2024-03-23T09:10:52;12.50;99.90
21149;DHT22;10732;51.472;6.466;2024-03-23T09:13:18;11.40;99.90
21149;DHT22;10732;51.472;6.466;2024-03-23T09:15:49;11.40;99.90
21149;DHT22;10732;51.472;6.466;2024-03-23T09:18:15;11.60;99.90
21149;DHT22;10732;51.472;6.466;2024-03-23T09:20:40;11.70;99.90
21149;DHT22;10732;51.472;6.466;2024-03-23T09:23:06;11.80;99.90
21149;DHT22;10732;51.472;6.466;2024-03-23T09:25:31;12.70;99.90
21149;DHT22;10732;51.472;6.466;2024-03-23T09:27:58;14.10;99.90
21149;DHT22;10732;51.472;6.466;2024-03-23T09:30:24;14.60;99.90
21149;DHT22;10732;51.472;6.466;2024-03-23T09:32:49;15.40;99.90
21149;DHT22;10732;51.472;6.466;2024-03-23T09:35:15;15.90;99.90
21149;DHT22;10732;51.472;6.466;2024-03-23T09:37:41;16.30;99.90
21149;DHT22;10732;51.472;6.466;2024-03-23T09:40:10;15.50;99.90
21149;DHT22;10732;51.472;6.466;2024-03-23T09:42:36;13.30;99.90
21149;DHT22;10732;51.472;6.466;2024-03-23T09:45:02;12.70;99.90
21149;DHT22;10732;51.472;6.466;2024-03-23T09:47:31;12.50;99.90
21149;DHT22;10732;51.472;6.466;2024-03-23T09:49:57;12.30;99.90
21149;DHT22;10732;51.472;6.466;2024-03-23T09:52:23;12.70;99.90
21149;DHT22;10732;51.472;6.466;2024-03-23T09:54:49;12.70;99.90
21149;DHT22;10732;51.472;6.466;2024-03-23T09:57:17;12.00;99.90
21149;DHT22;10732;51.472;6.466;2024-03-23T09:59:45;13.00;99.90
21149;DHT22;10732;51.472;6.466;2024-03-23T10:02:11;14.10;99.90
21149;DHT22;10732;51.472;6.466;2024-03-23T10:04:42;14.70;99.90
21149;DHT22;10732;51.472;6.466;2024-03-23T10:07:18;15.30;99.90
21149;DHT22;10732;51.472;6.466;2024-03-23T10:09:44;14.10;99.90
21149;DHT22;10732;51.472;6.466;2024-03-23T10:12:19;12.80;99.90
21149;DHT22;10732;51.472;6.466;2024-03-23T10:14:45;12.00;99.90
21149;DHT22;10732;51.472;6.466;2024-03-23T10:17:22;10.80;99.90
21149;DHT22;10732;51.472;6.466;2024-03-23T10:19:52;9.60;99.90
21149;DHT22;10732;51.472;6.466;2024-03-23T10:22:24;9.10;99.90
21149;DHT22;10732;51.472;6.466;2024-03-23T10:24:50;8.70;99.90
21149;DHT22;10732;51.472;6.466;2024-03-23T10:27:20;8.50;99.90
21149;DHT22;10732;51.472;6.466;2024-03-23T10:29:46;8.10;99.90
21149;DHT22;10732;51.472;6.466;2024-03-23T10:32:13;8.10;99.90
21149;DHT22;10732;51.472;6.466;2024-03-23T10:34:39;8.10;99.90
21149;DHT22;10732;51.472;6.466;2024-03-23T10:37:06;8.90;99.90
21149;DHT22;10732;51.472;6.466;2024-03-23T10:39:36;9.40;99.90
21149;DHT22;10732;51.472;6.466;2024-03-23T10:42:07;10.10;99.90
21149;DHT22;10732;51.472;6.466;2024-03-23T10:44:36;10.40;99.90
21149;DHT22;10732;51.472;6.466;2024-03-23T10:47:02;9.90;99.90
21149;DHT22;10732;51.472;6.466;2024-03-23T10:49:32;9.80;99.90
21149;DHT22;10732;51.472;6.466;2024-03-23T10:52:05;9.70;99.90
21149;DHT22;10732;51.472;6.466;2024-03-23T10:54:32;10.00;99.90
21149;DHT22;10732;51.472;6.466;2024-03-23T10:57:38;10.10;99.90
21149;DHT22;10732;51.472;6.466;2024-03-23T11:00:06;9.90;99.90
21149;DHT22;10732;51.472;6.466;2024-03-23T11:02:32;9.90;99.90
21149;DHT22;10732;51.472;6.466;2024-03-23T11:04:57;9.80;99.90
21149;DHT22;10732;51.472;6.466;2024-03-23T11:09:51;11.90;99.90
21149;DHT22;10732;51.472;6.466;2024-03-23T11:15:04;13.10;99.90
21149;DHT22;10732;51.472;6.466;2024-03-23T11:17:30;13.60;99.90
21149;DHT22;10732;51.472;6.466;2024-03-23T11:20:00;13.90;99.90
21149;DHT22;10732;51.472;6.466;2024-03-23T11:22:42;13.60;99.90
21149;DHT22;10732;51.472;6.466;2024-03-23T11:25:19;14.20;99.90
21149;DHT22;10732;51.472;6.466;2024-03-23T11:27:53;14.70;99.90
21149;DHT22;10732;51.472;6.466;2024-03-23T11:32:51;12.50;99.90
21149;DHT22;10732;51.472;6.466;2024-03-23T11:40:30;10.60;99.90
21149;DHT22;10732;51.472;6.466;2024-03-23T11:42:58;10.30;99.90
21149;DHT22;10732;51.472;6.466;2024-03-23T11:45:24;10.30;99.90
21149;DHT22;10732;51.472;6.466;2024-03-23T11:48:02;10.30;99.90
21149;DHT22;10732;51.472;6.466;2024-03-23T11:50:27;11.20;99.90
21149;DHT22;10732;51.472;6.466;2024-03-23T11:52:53;12.10;99.90
21149;DHT22;10732;51.472;6.466;2024-03-23T11:55:18;11.70;99.90
21149;DHT22;10732;51.472;6.466;2024-03-23T11:57:44;11.10;99.90
21149;DHT22;10732;51.472;6.466;2024-03-23T12:00:22;11.10;99.90
21149;DHT22;10732;51.472;6.466;2024-03-23T12:02:48;11.50;99.90
21149;DHT22;10732;51.472;6.466;2024-03-23T12:05:15;11.20;99.90
21149;DHT22;10732;51.472;6.466;2024-03-23T12:07:41;11.20;99.90
21149;DHT22;10732;51.472;6.466;2024-03-23T12:10:07;11.30;99.90
21149;DHT22;10732;51.472;6.466;2024-03-23T12:12:32;11.30;99.90
21149;DHT22;10732;51.472;6.466;2024-03-23T12:15:06;11.30;99.90
21149;DHT22;10732;51.472;6.466;2024-03-23T12:17:34;11.30;99.90
21149;DHT22;10732;51.472;6.466;2024-03-23T12:20:00;11.20;99.90
21149;DHT22;10732;51.472;6.466;2024-03-23T12:22:26;10.90;99.90
21149;DHT22;10732;51.472;6.466;2024-03-23T12:24:53;10.40;99.90
21149;DHT22;10732;51.472;6.466;2024-03-23T12:27:18;10.10;99.90
21149;DHT22;10732;51.472;6.466;2024-03-23T12:29:44;9.60;99.90
21149;DHT22;10732;51.472;6.466;2024-03-23T12:32:13;9.40;99.90
21149;DHT22;10732;51.472;6.466;2024-03-23T12:34:39;8.70;99.90
21149;DHT22;10732;51.472;6.466;2024-03-23T12:37:05;8.90;99.90
21149;DHT22;10732;51.472;6.466;2024-03-23T12:39:35;9.00;99.90
21149;DHT22;10732;51.472;6.466;2024-03-23T12:42:01;9.20;99.90
21149;DHT22;10732;51.472;6.466;2024-03-23T12:44:28;9.70;99.90
21149;DHT22;10732;51.472;6.466;2024-03-23T12:46:54;9.60;99.90
21149;DHT22;10732;51.472;6.466;2024-03-23T12:49:19;9.60;99.90
21149;DHT22;10732;51.472;6.466;2024-03-23T12:51:54;9.60;99.90
21149;DHT22;10732;51.472;6.466;2024-03-23T12:54:21;9.70;99.90
21149;DHT22;10732;51.472;6.466;2024-03-23T12:56:47;9.50;99.90
21149;DHT22;10732;51.472;6.466;2024-03-23T12:59:13;9.60;99.90
21149;DHT22;10732;51.472;6.466;2024-03-23T13:01:39;9.90;99.90
21149;DHT22;10732;51.472;6.466;2024-03-23T13:04:05;10.20;99.90
21149;DHT22;10732;51.472;6.466;2024-03-23T13:06:30;10.30;99.90
21149;DHT22;10732;51.472;6.466;2024-03-23T13:09:03;9.90;99.90
21149;DHT22;10732;51.472;6.466;2024-03-23T13:11:29;9.20;99.90
21149;DHT22;10732;51.472;6.466;2024-03-23T13:13:55;9.10;99.90
21149;DHT22;10732;51.472;6.466;2024-03-23T13:16:21;9.30;99.90
21149;DHT22;10732;51.472;6.466;2024-03-23T13:18:46;9.50;99.90
21149;DHT22;10732;51.472;6.466;2024-03-23T13:21:12;9.50;99.90
21149;DHT22;10732;51.472;6.466;2024-03-23T13:23:37;9.40;99.90
21149;DHT22;10732;51.472;6.466;2024-03-23T13:26:05;9.40;99.90
21149;DHT22;10732;51.472;6.466;2024-03-23T13:28:31;9.70;99.90
21149;DHT22;10732;51.472;6.466;2024-03-23T13:30:57;10.20;99.90
21149;DHT22;10732;51.472;6.466;2024-03-23T13:33:23;10.20;99.90
21149;DHT22;10732;51.472;6.466;2024-03-23T13:35:55;10.50;99.90
21149;DHT22;10732;51.472;6.466;2024-03-23T13:38:25;10.80;99.90
21149;DHT22;10732;51.472;6.466;2024-03-23T13:40:58;11.00;99.90
21149;DHT22;10732;51.472;6.466;2024-03-23T13:43:25;10.70;99.90
21149;DHT22;10732;51.472;6.466;2024-03-23T13:45:55;10.50;99.90
21149;DHT22;10732;51.472;6.466;2024-03-23T13:48:23;10.20;99.90
21149;DHT22;10732;51.472;6.466;2024-03-23T13:50:59;9.60;99.90
21149;DHT22;10732;51.472;6.466;2024-03-23T13:53:25;9.10;99.90
21149;DHT22;10732;51.472;6.466;2024-03-23T13:55:51;9.30;99.90
21149;DHT22;10732;51.472;6.466;2024-03-23T13:58:16;9.20;99.90
21149;DHT22;10732;51.472;6.466;2024-03-23T14:00:42;9.10;99.90
21149;DHT22;10732;51.472;6.466;2024-03-23T14:03:11;9.70;99.90
21149;DHT22;10732;51.472;6.466;2024-03-23T14:05:38;10.10;99.90
21149;DHT22;10732;51.472;6.466;2024-03-23T14:08:12;10.30;99.90
21149;DHT22;10732;51.472;6.466;2024-03-23T14:10:42;10.60;99.90
21149;DHT22;10732;51.472;6.466;2024-03-23T14:13:08;10.50;99.90
21149;DHT22;10732;51.472;6.466;2024-03-23T14:15:34;10.40;99.90
21149;DHT22;10732;51.472;6.466;2024-03-23T14:17:59;10.20;99.90
21149;DHT22;10732;51.472;6.466;2024-03-23T14:20:25;10.20;99.90
21149;DHT22;10732;51.472;6.466;2024-03-23T14:22:51;10.20;99.90
21149;DHT22;10732;51.472;6.466;2024-03-23T14:25:17;9.90;99.90
21149;DHT22;10732;51.472;6.466;2024-03-23T14:27:46;9.60;99.90
21149;DHT22;10732;51.472;6.466;2024-03-23T14:30:12;9.50;99.90
21149;DHT22;10732;51.472;6.466;2024-03-23T14:32:38;9.30;99.90
21149;DHT22;10732;51.472;6.466;2024-03-23T14:35:05;9.30;99.90
21149;DHT22;10732;51.472;6.466;2024-03-23T14:37:31;9.10;99.90
21149;DHT22;10732;51.472;6.466;2024-03-23T14:39:57;9.20;99.90
21149;DHT22;10732;51.472;6.466;2024-03-23T14:42:23;9.40;99.90
21149;DHT22;10732;51.472;6.466;2024-03-23T14:44:50;9.50;99.90
21149;DHT22;10732;51.472;6.466;2024-03-23T14:47:15;9.50;99.90
21149;DHT22;10732;51.472;6.466;2024-03-23T14:49:44;9.50;99.90
21149;DHT22;10732;51.472;6.466;2024-03-23T14:52:14;9.60;99.90
21149;DHT22;10732;51.472;6.466;2024-03-23T14:54:39;10.00;99.90
21149;DHT22;10732;51.472;6.466;2024-03-23T14:57:05;10.10;99.90
21149;DHT22;10732;51.472;6.466;2024-03-23T14:59:32;9.40;99.90
21149;DHT22;10732;51.472;6.466;2024-03-23T15:01:58;9.40;99.90
21149;DHT22;10732;51.472;6.466;2024-03-23T15:04:23;9.20;99.90
21149;DHT22;10732;51.472;6.466;2024-03-23T15:06:49;9.20;99.90
21149;DHT22;10732;51.472;6.466;2024-03-23T15:09:15;9.10;99.90
21149;DHT22;10732;51.472;6.466;2024-03-23T15:11:41;9.00;99.90
21149;DHT22;10732;51.472;6.466;2024-03-23T15:14:07;9.20;99.90
21149;DHT22;10732;51.472;6.466;2024-03-23T15:16:33;9.30;99.90
21149;DHT22;10732;51.472;6.466;2024-03-23T15:18:59;9.20;99.90
21149;DHT22;10732;51.472;6.466;2024-03-23T15:21:25;9.10;99.90
21149;DHT22;10732;51.472;6.466;2024-03-23T15:23:51;8.90;99.90
21149;DHT22;10732;51.472;6.466;2024-03-23T15:26:16;8.90;99.90
21149;DHT22;10732;51.472;6.466;2024-03-23T15:28:42;8.90;99.90
21149;DHT22;10732;51.472;6.466;2024-03-23T15:31:27;8.70;99.90
21149;DHT22;10732;51.472;6.466;2024-03-23T15:33:54;8.50;99.90
21149;DHT22;10732;51.472;6.466;2024-03-23T15:36:20;8.50;99.90
21149;DHT22;10732;51.472;6.466;2024-03-23T15:38:45;8.50;99.90
21149;DHT22;10732;51.472;6.466;2024-03-23T15:41:11;8.40;99.90
21149;DHT22;10732;51.472;6.466;2024-03-23T15:43:37;8.40;99.90
21149;DHT22;10732;51.472;6.466;2024-03-23T15:46:04;8.60;99.90
21149;DHT22;10732;51.472;6.466;2024-03-23T15:48:31;8.50;99.90
21149;DHT22;10732;51.472;6.466;2024-03-23T15:53:24;8.90;99.90
21149;DHT22;10732;51.472;6.466;2024-03-23T15:55:57;8.90;99.90
21149;DHT22;10732;51.472;6.466;2024-03-23T15:58:24;9.00;99.90
21149;DHT22;10732;51.472;6.466;2024-03-23T16:01:07;9.00;99.90
21149;DHT22;10732;51.472;6.466;2024-03-23T16:03:36;9.00;99.90
21149;DHT22;10732;51.472;6.466;2024-03-23T16:06:04;8.90;99.90
21149;DHT22;10732;51.472;6.466;2024-03-23T16:08:31;8.90;99.90
21149;DHT22;10732;51.472;6.466;2024-03-23T16:11:00;8.80;99.90
21149;DHT22;10732;51.472;6.466;2024-03-23T16:13:26;8.70;99.90
21149;DHT22;10732;51.472;6.466;2024-03-23T16:18:23;8.20;99.90
21149;DHT22;10732;51.472;6.466;2024-03-23T16:21:07;7.60;99.90
21149;DHT22;10732;51.472;6.466;2024-03-23T16:23:34;7.40;99.90
21149;DHT22;10732;51.472;6.466;2024-03-23T16:26:00;7.40;99.90
21149;DHT22;10732;51.472;6.466;2024-03-23T16:28:36;7.30;99.90
21149;DHT22;10732;51.472;6.466;2024-03-23T16:31:02;7.10;99.90
21149;DHT22;10732;51.472;6.466;2024-03-23T16:33:29;6.90;99.90
21149;DHT22;10732;51.472;6.466;2024-03-23T16:38:27;6.70;99.90
21149;DHT22;10732;51.472;6.466;2024-03-23T16:43:20;6.50;99.90
21149;DHT22;10732;51.472;6.466;2024-03-23T16:45:55;6.50;99.90
21149;DHT22;10732;51.472;6.466;2024-03-23T16:48:22;6.50;99.90
21149;DHT22;10732;51.472;6.466;2024-03-23T16:50:47;6.60;99.90
21149;DHT22;10732;51.472;6.466;2024-03-23T16:53:13;6.50;99.90